createdAt,value
2018-11-23T00:04:33.054Z,9.90
2018-11-23T00:07:02.417Z,8.30
2018-11-23T00:09:31.892Z,10.73
2018-11-23T00:12:01.382Z,10.37
2018-11-23T00:14:31.276Z,11.97
2018-11-23T00:17:10.605Z,10.87
2018-11-23T00:19:40.255Z,7.83
2018-11-23T00:22:35.421Z,8.23
2018-11-23T00:25:06.431Z,9.47
2018-11-23T00:27:35.842Z,7.93
2018-11-23T00:30:08.473Z,9.53
2018-11-23T00:32:55.638Z,4.53
2018-11-23T00:37:52.389Z,7.57
2018-11-23T00:40:23.157Z,7.93
2018-11-23T00:42:52.804Z,5.50
2018-11-23T00:45:22.586Z,8.77
2018-11-23T00:47:52.450Z,7.33
2018-11-23T00:50:23.163Z,6.63
2018-11-23T00:52:53.171Z,7.50
2018-11-23T00:55:23.700Z,6.43
2018-11-23T01:00:42.604Z,7.50
2018-11-23T01:03:12.020Z,4.83
2018-11-23T01:05:41.381Z,6.93
2018-11-23T01:08:18.042Z,5.57
2018-11-23T01:10:50.089Z,5.23
2018-11-23T01:13:19.504Z,9.63
2018-11-23T01:16:07.854Z,7.40
2018-11-23T01:21:03.928Z,7.53
2018-11-23T01:23:33.339Z,6.30
2018-11-23T01:26:02.880Z,4.07
2018-11-23T01:28:33.649Z,4.60
2018-11-23T01:31:03.072Z,6.70
2018-11-23T01:33:32.560Z,5.13
2018-11-23T01:36:02.088Z,6.07
2018-11-23T01:38:31.571Z,5.43
2018-11-23T01:41:01.291Z,5.57
2018-11-23T01:43:31.200Z,9.53
2018-11-23T01:49:12.701Z,6.57
2018-11-23T01:51:42.104Z,5.73
2018-11-23T01:54:11.396Z,8.13
2018-11-23T01:56:40.621Z,4.87
2018-11-23T01:59:10.097Z,5.20
2018-11-23T02:01:39.819Z,4.63
2018-11-23T02:04:09.442Z,5.13
2018-11-23T02:06:39.336Z,8.67
2018-11-23T02:09:09.044Z,7.93
2018-11-23T02:11:38.553Z,4.93
2018-11-23T02:14:08.106Z,5.13
2018-11-23T02:16:49.770Z,6.10
2018-11-23T02:19:28.293Z,7.17
2018-11-23T02:22:07.983Z,7.07
2018-11-23T02:24:37.505Z,5.93
2018-11-23T02:27:06.869Z,7.70
2018-11-23T02:29:36.338Z,6.97
2018-11-23T02:32:06.173Z,4.80
2018-11-23T02:34:35.365Z,5.03
2018-11-23T02:37:05.137Z,6.30
2018-11-23T02:39:34.754Z,6.80
2018-11-23T02:42:09.884Z,5.00
2018-11-23T02:44:39.241Z,4.63
2018-11-23T02:47:08.687Z,5.50
2018-11-23T02:49:53.269Z,4.33
2018-11-23T02:52:22.672Z,3.63
2018-11-23T02:54:51.909Z,4.43
2018-11-23T02:57:21.004Z,6.03
2018-11-23T02:59:50.375Z,5.77
2018-11-23T03:02:19.832Z,5.23
2018-11-23T03:04:49.291Z,6.57
2018-11-23T03:07:19.339Z,6.37
2018-11-23T03:09:49.157Z,4.70
2018-11-23T03:12:18.726Z,6.77
2018-11-23T03:14:48.116Z,7.40
2018-11-23T03:17:17.757Z,3.73
2018-11-23T03:19:49.044Z,5.70
2018-11-23T03:22:19.326Z,6.43
2018-11-23T03:24:48.856Z,4.73
2018-11-23T03:27:18.407Z,4.97
2018-11-23T03:29:48.021Z,7.13
2018-11-23T03:32:17.549Z,4.17
2018-11-23T03:34:59.628Z,3.57
2018-11-23T03:37:29.857Z,5.90
2018-11-23T03:39:59.468Z,6.13
2018-11-23T03:42:28.665Z,4.23
2018-11-23T03:44:58.009Z,4.50
2018-11-23T03:47:27.416Z,5.30
2018-11-23T03:50:02.232Z,2.97
2018-11-23T03:52:31.993Z,5.33
2018-11-23T03:55:03.552Z,4.43
2018-11-23T03:57:33.045Z,4.73
2018-11-23T04:00:02.547Z,5.80
2018-11-23T04:02:31.879Z,3.33
2018-11-23T04:05:01.406Z,3.73
2018-11-23T04:07:30.974Z,4.30
2018-11-23T04:10:00.393Z,4.43
2018-11-23T04:12:29.873Z,4.00
2018-11-23T04:14:59.147Z,3.90
2018-11-23T04:17:28.238Z,4.23
2018-11-23T04:20:24.499Z,5.20
2018-11-23T04:25:20.584Z,2.90
2018-11-23T04:27:50.041Z,4.80
2018-11-23T04:30:19.495Z,7.43
2018-11-23T04:32:49.544Z,7.67
2018-11-23T04:35:19.905Z,9.20
2018-11-23T04:37:52.109Z,8.73
2018-11-23T09:33:07.588Z,7.53
2018-11-23T09:35:37.768Z,9.50
2018-11-23T09:38:14.660Z,14.10
2018-11-23T09:40:44.140Z,9.57
2018-11-23T09:43:15.594Z,8.27
2018-11-23T09:45:45.568Z,13.07
2018-11-23T09:48:15.027Z,11.27
2018-11-23T09:50:44.463Z,14.90
2018-11-23T09:53:13.721Z,14.20
2018-11-23T09:55:43.886Z,18.10
2018-11-23T09:58:22.403Z,19.63
2018-11-23T10:00:52.020Z,20.53
2018-11-23T10:03:21.419Z,15.43
2018-11-23T10:05:53.817Z,19.90
2018-11-23T10:08:23.157Z,16.93
2018-11-23T10:10:52.532Z,13.73
2018-11-23T10:13:22.067Z,13.23
2018-11-23T10:15:51.513Z,14.70
2018-11-23T10:18:25.629Z,13.23
2018-11-23T10:20:55.482Z,18.27
2018-11-23T10:23:24.948Z,12.20
2018-11-23T10:25:56.838Z,13.87
2018-11-23T10:28:26.408Z,12.77
2018-11-23T10:30:56.321Z,14.87
2018-11-23T10:33:28.350Z,13.40
2018-11-23T10:35:55.911Z,14.83
2018-11-23T10:38:25.166Z,10.37
2018-11-23T10:40:54.289Z,13.10
2018-11-23T10:43:23.942Z,13.33
2018-11-23T10:45:53.452Z,9.73
2018-11-23T10:48:22.922Z,11.77
2018-11-23T10:50:52.279Z,10.70
2018-11-23T10:53:22.814Z,14.77
2018-11-23T10:55:52.177Z,10.87
2018-11-23T10:58:21.911Z,8.37
2018-11-23T11:00:56.171Z,7.47
2018-11-23T11:03:33.041Z,9.97
2018-11-23T11:06:10.038Z,11.83
2018-11-23T11:08:40.099Z,9.07
2018-11-23T11:11:09.934Z,8.67
2018-11-23T11:13:39.765Z,10.17
2018-11-23T11:16:09.191Z,10.27
2018-11-23T11:18:39.006Z,7.23
2018-11-23T11:21:08.748Z,7.70
2018-11-23T11:23:39.251Z,9.30
2018-11-23T11:26:09.355Z,9.40
2018-11-23T11:28:39.049Z,8.93
2018-11-23T11:31:08.546Z,9.80
2018-11-23T11:33:37.818Z,8.33
2018-11-23T11:36:07.900Z,11.47
2018-11-23T11:38:37.295Z,9.30
2018-11-23T11:41:07.055Z,11.10
2018-11-23T11:43:37.344Z,7.47
2018-11-23T11:46:07.042Z,7.97
2018-11-23T11:48:36.657Z,8.53
2018-11-23T11:51:06.549Z,6.60
2018-11-23T11:53:36.020Z,9.37
2018-11-23T11:56:05.965Z,10.87
2018-11-23T11:58:35.412Z,8.37
2018-11-23T12:01:05.217Z,6.70
2018-11-23T12:03:35.303Z,6.33
2018-11-23T12:06:05.081Z,6.27
2018-11-23T12:08:35.628Z,7.67
2018-11-23T12:11:05.717Z,7.50
2018-11-23T12:13:35.195Z,8.53
2018-11-23T12:16:05.233Z,5.83
2018-11-23T12:18:35.018Z,10.70
2018-11-23T12:21:04.606Z,6.30
2018-11-23T12:23:34.036Z,5.93
2018-11-23T12:26:03.531Z,6.70
2018-11-23T12:28:33.346Z,6.77
2018-11-23T12:31:02.965Z,6.70
2018-11-23T12:33:32.596Z,7.67
2018-11-23T12:36:02.184Z,7.63
2018-11-23T12:38:31.677Z,8.10
2018-11-23T12:41:02.042Z,6.33
2018-11-23T12:43:31.428Z,6.97
2018-11-23T12:46:00.995Z,5.57
2018-11-23T12:48:33.151Z,7.03
2018-11-23T12:51:02.664Z,5.87
2018-11-23T12:53:32.279Z,6.23
2018-11-23T12:56:01.884Z,6.37
2018-11-23T12:58:31.961Z,5.53
2018-11-23T13:01:02.680Z,5.40
2018-11-23T13:03:32.270Z,7.77
2018-11-23T13:06:02.570Z,4.43
2018-11-23T13:08:34.384Z,5.23
2018-11-23T13:11:04.868Z,5.27
2018-11-23T13:13:34.329Z,7.27
2018-11-23T13:16:51.869Z,5.57
2018-11-23T13:19:22.200Z,4.23
2018-11-23T13:21:52.663Z,4.47
2018-11-23T13:24:22.992Z,4.00
2018-11-23T13:26:52.538Z,4.97
2018-11-23T13:29:22.282Z,4.00
2018-11-23T13:31:52.149Z,4.73
2018-11-23T13:34:21.844Z,4.70
2018-11-23T13:36:51.330Z,4.57
2018-11-23T13:39:21.234Z,3.63
2018-11-23T13:41:50.976Z,5.00
2018-11-23T13:44:20.611Z,3.90
2018-11-23T13:46:57.432Z,3.47
2018-11-23T13:49:27.213Z,3.97
2018-11-23T13:51:56.542Z,5.07
2018-11-23T13:54:26.118Z,4.63
2018-11-23T13:56:55.661Z,7.47
2018-11-23T13:59:25.283Z,3.60
2018-11-23T14:01:55.061Z,5.83
2018-11-23T14:04:27.515Z,4.10
2018-11-23T14:06:57.113Z,3.83
2018-11-23T14:09:26.354Z,4.40
2018-11-23T14:11:55.797Z,4.40
2018-11-23T14:14:25.228Z,5.57
2018-11-23T14:16:54.628Z,3.73
2018-11-23T14:19:24.220Z,4.00
2018-11-23T14:21:53.667Z,4.10
2018-11-23T14:24:23.332Z,4.10
2018-11-23T14:26:52.686Z,4.03
2018-11-23T14:29:22.110Z,3.37
2018-11-23T14:31:51.941Z,4.13
2018-11-23T14:34:21.554Z,3.77
2018-11-23T14:36:50.925Z,3.63
2018-11-23T14:39:20.477Z,3.30
2018-11-23T14:41:50.053Z,4.33
2018-11-23T14:44:22.404Z,3.60
2018-11-23T14:46:51.758Z,3.30
2018-11-23T14:49:21.238Z,2.87
2018-11-23T14:51:50.700Z,3.20
2018-11-23T14:54:20.205Z,3.97
2018-11-23T14:56:49.533Z,3.63
2018-11-23T14:59:18.992Z,3.60
2018-11-23T15:01:52.010Z,6.47
2018-11-23T15:04:17.763Z,5.37
2018-11-23T15:06:47.286Z,3.87
2018-11-23T15:09:17.164Z,4.30
2018-11-23T15:11:46.576Z,4.17
2018-11-23T15:14:16.173Z,3.97
2018-11-23T15:16:45.807Z,3.63
2018-11-23T15:19:15.286Z,5.00
2018-11-23T15:21:44.746Z,3.47
2018-11-23T15:24:14.241Z,4.03
2018-11-23T15:26:45.093Z,5.90
2018-11-23T15:29:14.484Z,4.47
2018-11-23T15:31:43.958Z,11.07
2018-11-23T15:34:13.489Z,10.40
2018-11-23T15:36:43.050Z,9.80
2018-11-23T15:39:13.515Z,8.80
2018-11-23T15:41:42.651Z,7.90
2018-11-23T15:44:12.306Z,7.20
2018-11-23T15:46:41.722Z,5.90
2018-11-23T15:49:11.277Z,8.17
2018-11-23T15:51:40.759Z,7.43
2018-11-23T15:54:10.154Z,6.23
2018-11-23T15:56:39.814Z,5.80
2018-11-23T15:59:09.305Z,6.40
2018-11-23T16:01:39.135Z,6.13
2018-11-23T16:04:08.592Z,6.80
2018-11-23T16:06:39.299Z,8.03
2018-11-23T16:09:14.069Z,6.07
2018-11-23T16:11:43.513Z,5.97
2018-11-23T16:14:13.357Z,5.53
2018-11-23T16:16:42.872Z,5.70
2018-11-23T16:19:12.450Z,5.97
2018-11-23T16:21:42.104Z,5.27
2018-11-23T16:24:11.402Z,9.43
2018-11-23T16:26:41.026Z,5.20
2018-11-23T16:29:10.347Z,7.50
2018-11-23T16:31:40.027Z,7.40
2018-11-23T16:34:09.543Z,6.53
2018-11-23T16:36:38.994Z,5.93
2018-11-23T16:39:11.573Z,5.77
2018-11-23T16:41:41.140Z,5.57
2018-11-23T16:44:10.738Z,6.33
2018-11-23T16:46:40.374Z,5.17
2018-11-23T16:49:09.935Z,8.43
2018-11-23T16:51:39.328Z,7.73
2018-11-23T16:54:09.042Z,7.97
2018-11-23T16:56:43.114Z,8.83
2018-11-23T16:59:44.303Z,12.87
2018-11-23T17:02:13.706Z,10.93
2018-11-23T17:04:43.146Z,17.47
2018-11-23T17:07:13.168Z,20.07
2018-11-23T17:09:42.349Z,13.23
2018-11-23T17:12:14.923Z,15.73
2018-11-23T17:14:44.323Z,13.77
2018-11-23T17:17:13.879Z,16.53
2018-11-23T17:19:43.549Z,13.23
2018-11-23T17:22:12.938Z,11.57
2018-11-23T17:24:43.452Z,10.67
2018-11-23T17:27:13.160Z,18.70
2018-11-23T17:29:44.432Z,13.83
2018-11-23T17:33:26.219Z,13.60
2018-11-23T17:35:55.610Z,10.90
2018-11-23T17:38:25.312Z,10.97
2018-11-23T17:40:54.824Z,10.10
2018-11-23T17:43:38.462Z,22.93
2018-11-23T17:49:11.379Z,22.40
2018-11-23T17:51:40.908Z,15.63
2018-11-23T17:54:10.284Z,5.93
2018-11-23T17:56:40.024Z,5.20
2018-11-23T17:59:09.894Z,3.70
2018-11-23T18:01:39.989Z,3.27
2018-11-23T18:04:09.576Z,2.93
2018-11-23T18:06:39.169Z,12.10
2018-11-23T18:09:09.135Z,14.30
2018-11-23T18:11:38.726Z,39.37
2018-11-23T18:14:08.169Z,13.50
2018-11-23T18:16:37.660Z,8.23
2018-11-23T18:19:07.203Z,5.83
2018-11-23T18:21:37.187Z,6.07
2018-11-23T18:24:06.616Z,2.70
2018-11-23T18:26:36.447Z,3.27
2018-11-23T18:29:05.929Z,2.37
2018-11-23T18:31:35.632Z,2.13
2018-11-23T18:34:05.439Z,3.00
2018-11-23T18:36:34.897Z,1.80
2018-11-23T18:39:06.357Z,8.37
